createdAt,value
2023-04-24T04:02:26.315Z,99512.00
2023-04-24T04:04:54.706Z,99516.00
2023-04-24T04:07:23.009Z,99519.00
2023-04-24T04:09:51.262Z,99510.00
2023-04-24T04:12:19.557Z,99507.00
2023-04-24T04:14:47.789Z,99489.00
2023-04-24T04:17:16.089Z,99515.00
2023-04-24T04:19:45.849Z,99513.00
2023-04-24T04:22:14.076Z,99504.00
2023-04-24T04:24:42.255Z,99505.00
2023-04-24T04:27:10.558Z,99516.00
2023-04-24T04:29:39.481Z,99510.00
2023-04-24T04:32:08.093Z,99507.00
2023-04-24T04:34:38.567Z,99513.00
2023-04-24T04:37:08.681Z,99502.00
2023-04-24T04:39:36.873Z,99509.00
2023-04-24T04:42:05.214Z,99518.00
2023-04-24T04:44:33.651Z,99516.00
2023-04-24T04:47:04.840Z,99524.00
2023-04-24T04:49:33.263Z,99518.00
2023-04-24T04:52:01.438Z,99527.00
2023-04-24T04:54:30.979Z,99526.00
2023-04-24T04:57:01.312Z,99530.00
2023-04-24T04:59:30.218Z,99534.00
2023-04-24T05:01:58.393Z,99530.00
2023-04-24T05:04:27.454Z,99527.00
2023-04-24T05:06:55.826Z,99529.00
2023-04-24T05:09:24.056Z,99525.00
2023-04-24T05:11:53.549Z,99524.00
2023-04-24T05:14:21.768Z,99533.00
2023-04-24T05:16:50.112Z,99526.00
2023-04-24T05:19:18.322Z,99533.00
2023-04-24T05:21:46.539Z,99524.00
2023-04-24T05:24:14.746Z,99517.00
2023-04-24T05:26:43.117Z,99529.00
2023-04-24T05:29:12.925Z,99519.00
2023-04-24T05:31:41.097Z,99524.00
2023-04-24T05:34:09.349Z,99528.00
2023-04-24T05:36:37.591Z,99531.00
2023-04-24T05:39:08.124Z,99535.00
2023-04-24T05:41:36.752Z,99536.00
2023-04-24T05:44:04.915Z,99535.00
2023-04-24T05:46:34.536Z,99538.00
2023-04-24T05:49:03.045Z,99541.00
2023-04-24T05:51:31.439Z,99535.00
2023-04-24T05:53:59.623Z,99528.00
2023-04-24T05:56:28.002Z,99538.00
2023-04-24T05:58:56.480Z,99524.00
2023-04-24T06:01:26.049Z,99544.00
2023-04-24T06:03:55.709Z,99550.00
2023-04-24T06:06:24.825Z,99546.00
2023-04-24T06:08:53.000Z,99545.00
2023-04-24T06:11:21.243Z,99556.00
2023-04-24T06:13:49.432Z,99557.00
2023-04-24T06:16:17.771Z,99566.00
2023-04-24T06:18:48.036Z,99557.00
2023-04-24T06:21:19.146Z,99570.00
2023-04-24T06:23:47.735Z,99565.00
2023-04-24T06:26:16.045Z,99568.00
2023-04-24T06:28:44.248Z,99565.00
2023-04-24T06:31:12.455Z,99561.00
2023-04-24T06:33:40.846Z,99560.00
2023-04-24T06:36:09.285Z,99573.00
2023-04-24T06:38:38.842Z,99569.00
2023-04-24T06:41:07.072Z,99582.00
2023-04-24T06:43:35.466Z,99565.00
2023-04-24T06:46:04.570Z,99577.00
2023-04-24T06:48:33.821Z,99573.00
2023-04-24T06:51:02.838Z,99581.00
2023-04-24T06:53:31.139Z,99578.00
2023-04-24T06:56:00.853Z,99578.00
2023-04-24T06:58:29.189Z,99581.00
2023-04-24T07:00:57.837Z,99573.00
2023-04-24T07:03:26.438Z,99571.00
2023-04-24T07:05:54.872Z,99555.00
2023-04-24T07:08:23.919Z,99562.00
2023-04-24T07:10:52.669Z,99550.00
2023-04-24T07:13:22.886Z,99563.00
2023-04-24T07:15:52.079Z,99562.00
2023-04-24T07:18:20.400Z,99561.00
2023-04-24T07:20:48.730Z,99555.00
2023-04-24T07:23:16.897Z,99563.00
2023-04-24T07:25:45.116Z,99563.00
2023-04-24T07:28:13.630Z,99573.00
2023-04-24T07:30:43.214Z,99578.00
2023-04-24T07:33:14.089Z,99580.00
2023-04-24T07:35:42.506Z,99573.00
2023-04-24T07:38:10.663Z,99581.00
2023-04-24T07:40:38.859Z,99582.00
2023-04-24T07:43:07.026Z,99574.00
2023-04-24T07:45:38.113Z,99577.00
2023-04-24T07:48:09.854Z,99572.00
2023-04-24T07:50:38.471Z,99573.00
2023-04-24T07:53:06.733Z,99572.00
2023-04-24T07:55:35.012Z,99578.00
2023-04-24T07:58:03.289Z,99571.00
2023-04-24T08:00:31.880Z,99570.00
2023-04-24T08:03:00.353Z,99568.00
2023-04-24T08:05:30.255Z,99577.00
2023-04-24T08:08:00.630Z,99579.00
2023-04-24T08:10:28.892Z,99569.00
2023-04-24T08:12:57.422Z,99581.00
2023-04-24T08:15:25.894Z,99579.00
2023-04-24T08:17:54.435Z,99574.00
2023-04-24T08:20:22.912Z,99576.00
2023-04-24T08:22:52.476Z,99575.00
2023-04-24T08:25:21.194Z,99580.00
2023-04-24T08:27:49.904Z,99575.00
2023-04-24T08:30:18.436Z,99580.00
2023-04-24T08:32:46.714Z,99571.00
2023-04-24T08:35:15.100Z,99568.00
2023-04-24T08:37:43.237Z,99566.00
2023-04-24T08:40:17.013Z,99569.00
2023-04-24T08:42:46.526Z,99563.00
2023-04-24T08:45:15.528Z,99575.00
2023-04-24T08:47:46.129Z,99577.00
2023-04-24T08:50:14.519Z,99557.00
2023-04-24T08:52:44.865Z,99584.00
2023-04-24T08:55:15.795Z,99581.00
2023-04-24T08:57:45.877Z,99587.00
2023-04-24T09:00:16.004Z,99586.00
2023-04-24T09:02:45.718Z,99575.00
2023-04-24T09:05:15.971Z,99586.00
2023-04-24T09:07:47.836Z,99594.00
2023-04-24T09:10:17.674Z,99577.00
2023-04-24T09:12:47.954Z,99603.00
2023-04-24T09:15:16.520Z,99602.00
2023-04-24T09:17:45.623Z,99592.00
2023-04-24T09:20:14.002Z,99593.00
2023-04-24T09:22:42.366Z,99576.00
2023-04-24T09:25:13.488Z,99600.00
2023-04-24T09:27:47.999Z,99578.00
2023-04-24T09:30:23.677Z,99590.00
2023-04-24T09:32:54.337Z,99590.00
2023-04-24T09:35:22.624Z,99591.00
2023-04-24T09:37:50.839Z,99597.00
2023-04-24T09:40:20.734Z,99587.00
2023-04-24T09:42:56.422Z,99592.00
2023-04-24T09:45:29.987Z,99595.00
2023-04-24T09:47:58.224Z,99598.00
2023-04-24T09:50:26.536Z,99602.00
2023-04-24T09:53:03.420Z,99589.00
2023-04-24T09:55:32.325Z,99586.00
2023-04-24T09:58:07.001Z,99590.00
2023-04-24T10:00:36.296Z,99585.00
2023-04-24T10:03:07.857Z,99587.00
2023-04-24T10:05:39.642Z,99585.00
2023-04-24T10:08:11.421Z,99586.00
2023-04-24T10:10:43.319Z,99586.00
2023-04-24T10:13:15.444Z,99578.00
2023-04-24T10:15:44.672Z,99590.00
2023-04-24T10:18:13.627Z,99570.00
2023-04-24T10:20:42.937Z,99604.00
2023-04-24T10:23:11.709Z,99595.00
2023-04-24T10:25:40.029Z,99597.00
2023-04-24T10:28:10.497Z,99593.00
2023-04-24T10:30:45.418Z,99597.00
2023-04-24T10:33:14.387Z,99587.00
2023-04-24T10:35:48.755Z,99601.00
2023-04-24T10:38:25.135Z,99597.00
2023-04-24T10:40:53.358Z,99597.00
2023-04-24T10:43:21.836Z,99586.00
2023-04-24T10:46:05.584Z,99573.00
2023-04-24T10:48:34.518Z,99595.00
2023-04-24T10:51:03.399Z,99585.00
2023-04-24T10:53:33.041Z,99557.00
2023-04-24T10:56:06.056Z,99582.00
2023-04-24T10:58:45.623Z,99589.00
2023-04-24T11:01:28.405Z,99585.00
2023-04-24T11:04:03.346Z,99579.00
2023-04-24T11:06:34.055Z,99562.00
2023-04-24T11:09:07.362Z,99565.00
2023-04-24T11:11:37.890Z,99572.00
2023-04-24T11:14:09.076Z,99580.00
2023-04-24T11:16:45.533Z,99570.00
2023-04-24T11:19:27.305Z,99569.00
2023-04-24T11:22:02.679Z,99560.00
2023-04-24T11:24:40.507Z,99570.00
2023-04-24T11:27:16.062Z,99576.00
2023-04-24T11:29:47.288Z,99581.00
2023-04-24T11:32:31.516Z,99602.00
2023-04-24T11:35:02.284Z,99625.00
2023-04-24T11:37:36.330Z,99629.00
2023-04-24T11:40:07.462Z,99621.00
2023-04-24T11:42:40.544Z,99597.00
2023-04-24T11:45:15.112Z,99607.00
2023-04-24T11:47:46.275Z,99614.00
2023-04-24T11:50:17.270Z,99605.00
2023-04-24T11:52:47.900Z,99609.00
2023-04-24T11:55:29.106Z,99597.00
2023-04-24T11:58:01.898Z,99602.00
2023-04-24T12:00:32.202Z,99604.00
2023-04-24T12:03:10.446Z,99597.00
2023-04-24T12:05:39.966Z,99592.00
2023-04-24T12:08:08.712Z,99604.00
2023-04-24T12:10:37.480Z,99593.00
2023-04-24T12:13:06.401Z,99595.00
2023-04-24T12:15:34.677Z,99585.00
2023-04-24T12:18:02.975Z,99586.00
2023-04-24T12:20:35.137Z,99593.00
2023-04-24T12:23:03.779Z,99596.00
2023-04-24T12:25:35.396Z,99585.00
2023-04-24T12:28:13.987Z,99589.00
2023-04-24T12:30:46.236Z,99562.00
2023-04-24T12:33:14.424Z,99587.00
2023-04-24T12:35:43.973Z,99578.00
2023-04-24T12:38:14.882Z,99588.00
2023-04-24T12:40:44.125Z,99573.00
2023-04-24T12:43:17.389Z,99569.00
2023-04-24T12:45:46.235Z,99563.00
2023-04-24T12:48:15.538Z,99553.00
2023-04-24T12:50:46.968Z,99552.00
2023-04-24T12:53:16.309Z,99565.00
2023-04-24T12:55:45.564Z,99552.00
2023-04-24T12:58:13.689Z,99563.00
2023-04-24T13:00:44.414Z,99478.00
2023-04-24T13:03:14.162Z,99562.00
2023-04-24T13:05:44.841Z,99552.00
2023-04-24T13:08:13.728Z,99595.00
2023-04-24T13:10:42.731Z,99581.00
2023-04-24T13:13:11.224Z,99547.00
2023-04-24T13:15:39.332Z,99566.00
2023-04-24T13:18:07.562Z,99562.00
2023-04-24T13:20:36.567Z,99576.00
2023-04-24T13:23:06.109Z,99582.00
2023-04-24T13:25:40.249Z,99576.00
2023-04-24T13:28:08.555Z,99539.00
2023-04-24T13:30:36.785Z,99552.00
2023-04-24T13:33:05.236Z,99557.00
2023-04-24T13:35:33.517Z,99567.00
2023-04-24T13:38:02.222Z,99579.00
2023-04-24T13:40:31.892Z,99551.00
2023-04-24T13:43:00.161Z,99568.00
2023-04-24T13:45:28.350Z,99562.00
2023-04-24T13:47:57.865Z,99551.00
2023-04-24T13:50:26.392Z,99550.00
2023-04-24T13:52:55.083Z,99553.00
2023-04-24T13:55:24.201Z,99552.00
2023-04-24T13:57:55.967Z,99562.00
2023-04-24T14:00:24.444Z,99563.00
2023-04-24T14:02:52.781Z,99577.00
2023-04-24T14:05:22.640Z,99525.00
2023-04-24T14:07:51.734Z,99568.00
2023-04-24T14:10:20.055Z,99569.00
2023-04-24T14:12:48.377Z,99572.00
2023-04-24T14:15:17.955Z,99569.00
2023-04-24T14:17:46.322Z,99568.00
2023-04-24T14:20:15.035Z,99565.00
2023-04-24T14:22:43.183Z,99556.00
2023-04-24T14:25:11.797Z,99549.00
2023-04-24T14:27:40.960Z,99548.00
2023-04-24T14:30:10.610Z,99562.00
2023-04-24T14:32:40.791Z,99565.00
2023-04-24T14:35:10.320Z,99554.00
2023-04-24T14:37:39.237Z,99593.00
2023-04-24T14:40:29.819Z,99580.00
2023-04-24T14:42:59.521Z,99580.00
2023-04-24T14:45:29.274Z,99576.00
2023-04-24T14:47:59.781Z,99553.00
2023-04-24T14:50:29.055Z,99577.00
2023-04-24T14:52:58.417Z,99586.00
2023-04-24T14:55:27.265Z,99569.00
2023-04-24T14:57:55.633Z,99574.00
2023-04-24T15:00:26.301Z,99582.00
2023-04-24T15:02:54.567Z,99572.00
2023-04-24T15:05:25.699Z,99586.00
2023-04-24T15:07:54.080Z,99599.00
2023-04-24T15:10:23.823Z,99579.00
2023-04-24T15:12:52.117Z,99597.00
2023-04-24T15:15:20.515Z,99608.00
2023-04-24T15:17:48.673Z,99588.00
2023-04-24T15:20:16.870Z,99576.00
2023-04-24T15:22:47.148Z,99587.00
2023-04-24T15:25:15.294Z,99587.00
2023-04-24T15:27:45.287Z,99582.00
2023-04-24T15:30:14.896Z,99595.00
2023-04-24T15:32:43.152Z,99619.00
2023-04-24T15:35:12.431Z,99603.00
2023-04-24T15:37:41.117Z,99624.00
2023-04-24T15:40:14.162Z,99593.00
2023-04-24T15:42:44.314Z,99602.00
2023-04-24T15:45:13.561Z,99619.00
2023-04-24T15:47:42.862Z,99589.00
2023-04-24T15:50:14.333Z,99599.00
2023-04-24T15:52:43.231Z,99599.00
2023-04-24T15:55:13.724Z,99569.00
2023-04-24T15:57:42.441Z,99604.00
2023-04-24T16:00:12.180Z,99604.00
2023-04-24T16:02:40.949Z,99603.00
2023-04-24T16:05:09.839Z,99611.00
2023-04-24T16:07:40.198Z,99605.00
2023-04-24T16:10:10.374Z,99618.00
2023-04-24T16:12:40.061Z,99601.00
2023-04-24T16:15:09.611Z,99619.00
2023-04-24T16:17:38.018Z,99599.00
2023-04-24T16:20:07.833Z,99615.00
2023-04-24T16:22:36.361Z,99608.00
2023-04-24T16:25:05.127Z,99599.00
2023-04-24T16:27:34.248Z,99602.00
2023-04-24T16:30:04.075Z,99621.00
2023-04-24T16:32:32.337Z,99611.00
2023-04-24T16:35:00.644Z,99616.00
2023-04-24T16:37:30.445Z,99624.00
2023-04-24T16:39:58.730Z,99647.00
2023-04-24T16:42:26.909Z,99612.00
2023-04-24T16:44:55.233Z,99636.00
2023-04-24T16:47:24.961Z,99625.00
2023-04-24T16:49:53.211Z,99620.00
2023-04-24T16:52:21.314Z,99635.00
2023-04-24T16:54:49.634Z,99629.00
2023-04-24T16:57:17.848Z,99651.00
2023-04-24T16:59:45.953Z,99643.00
2023-04-24T17:02:14.271Z,99663.00
2023-04-24T17:04:43.806Z,99657.00
2023-04-24T17:07:11.986Z,99674.00
2023-04-24T17:09:40.347Z,99665.00
2023-04-24T17:12:08.512Z,99665.00
2023-04-24T17:14:36.697Z,99685.00
2023-04-24T17:17:05.407Z,99682.00
2023-04-24T17:19:33.637Z,99681.00
2023-04-24T17:22:06.141Z,99681.00
2023-04-24T17:24:35.423Z,99706.00
2023-04-24T17:27:13.874Z,99673.00
2023-04-24T17:29:43.536Z,99696.00
2023-04-24T17:32:11.956Z,99692.00
2023-04-24T17:34:40.216Z,99708.00
2023-04-24T17:37:09.913Z,99735.00
2023-04-24T17:39:38.104Z,99713.00
2023-04-24T17:42:06.744Z,99749.00
2023-04-24T17:44:35.783Z,99735.00
2023-04-24T17:47:05.485Z,99740.00
2023-04-24T17:49:34.133Z,99735.00
2023-04-24T17:52:02.375Z,99737.00
2023-04-24T17:54:31.988Z,99738.00
2023-04-24T17:57:00.219Z,99747.00
2023-04-24T17:59:28.347Z,99737.00
2023-04-24T18:01:58.550Z,99737.00
2023-04-24T18:04:26.839Z,99754.00
2023-04-24T18:06:55.150Z,99755.00
2023-04-24T18:09:23.509Z,99752.00
2023-04-24T18:11:53.000Z,99765.00
2023-04-24T18:14:21.224Z,99782.00
2023-04-24T18:16:49.444Z,99759.00
2023-04-24T18:19:17.583Z,99771.00
2023-04-24T18:21:45.756Z,99804.00
2023-04-24T18:24:14.022Z,99786.00
2023-04-24T18:26:42.115Z,99796.00
2023-04-24T18:29:12.459Z,99789.00
2023-04-24T18:31:40.701Z,99801.00
2023-04-24T18:34:09.058Z,99819.00
2023-04-24T18:36:37.276Z,99792.00
2023-04-24T18:39:05.852Z,99821.00
2023-04-24T18:41:35.198Z,99783.00
2023-04-24T18:44:03.475Z,99822.00
2023-04-24T18:46:37.820Z,99827.00
2023-04-24T18:49:06.473Z,99834.00
2023-04-24T18:51:46.534Z,99848.00
2023-04-24T18:54:21.368Z,99846.00
2023-04-24T18:56:49.499Z,99859.00
2023-04-24T18:59:17.610Z,99855.00
2023-04-24T19:01:47.518Z,99868.00
2023-04-24T19:04:15.969Z,99871.00
2023-04-24T19:06:44.191Z,99867.00
2023-04-24T19:09:12.379Z,99865.00
2023-04-24T19:11:41.615Z,99870.00
2023-04-24T19:14:09.891Z,99873.00
2023-04-24T19:16:38.557Z,99890.00
2023-04-24T19:19:08.281Z,99879.00
2023-04-24T19:21:36.587Z,99884.00
2023-04-24T19:24:05.503Z,99893.00
2023-04-24T19:26:34.143Z,99881.00
2023-04-24T19:29:03.296Z,99897.00
2023-04-24T19:31:31.416Z,99878.00
2023-04-24T19:33:59.494Z,99887.00
2023-04-24T19:36:31.218Z,99888.00
2023-04-24T19:38:59.369Z,99885.00
2023-04-24T19:41:27.502Z,99895.00
2023-04-24T19:43:55.634Z,99915.00
2023-04-24T19:46:24.030Z,99905.00
2023-04-24T19:48:52.365Z,99918.00
2023-04-24T19:51:20.658Z,99898.00
2023-04-24T19:53:50.396Z,99910.00
2023-04-24T19:56:18.486Z,99905.00
2023-04-24T19:58:48.295Z,99898.00
2023-04-24T20:01:16.698Z,99895.00
2023-04-24T20:03:45.082Z,99889.00
2023-04-24T20:06:13.541Z,99900.00
2023-04-24T20:08:42.646Z,99891.00
2023-04-24T20:11:12.188Z,99898.00
2023-04-24T20:13:40.379Z,99893.00
2023-04-24T20:16:11.126Z,99893.00
2023-04-24T20:18:39.654Z,99898.00
2023-04-24T20:21:07.960Z,99898.00
2023-04-24T20:23:36.861Z,99898.00
2023-04-24T20:26:05.242Z,99897.00
2023-04-24T20:28:34.999Z,99900.00
2023-04-24T20:31:03.275Z,99896.00
2023-04-24T20:33:32.243Z,99896.00
2023-04-24T20:36:00.407Z,99903.00
2023-04-24T20:38:28.814Z,99890.00
2023-04-24T20:40:58.330Z,99893.00
2023-04-24T20:43:29.039Z,99898.00
2023-04-24T20:45:59.577Z,99882.00
2023-04-24T20:48:28.058Z,99897.00
2023-04-24T20:50:56.562Z,99895.00
2023-04-24T20:53:25.152Z,99899.00
2023-04-24T20:55:53.611Z,99894.00
2023-04-24T20:58:22.936Z,99897.00
